Kurchatov, Russia
Current Conditions -  °F | °C
As of 4:00 PM on Thursday 18 Dec 2014 (Local Time) from UUOK Reporting Station
Broken Clouds Broken Clouds  
Wind Chill: 26°   Ceiling: 1100
Heat Index: 32°   Visibility: 6mi
Dew Point: 30°   Wind: 7mph
Humidity: 93%   Direction: 320°NW
Pressure: 29.94"   Gusts: NA
Location:  51.59°N, 35.65°E
Report Text: UUOK 181300Z 32003MPS 9999 BKN011 00/M01 Q1014 NOSIG RMK30CLRD60
Loading
Personal Weather Stations






























Interactive Weather Map New forecast layout! Learn more

10-Day Weather Forecast

Advertisements
Track Severe Weather on mobile